Time;durP1;ratioP1;P1;durP2;ratioP2;P2;SDS_P1;SDS_P2;PMS_P1;PMS_P2;Temp;Humidity;BMP_temperature;BMP_pressure;BME280_temperature;BME280_humidity;BME280_pressure;Samples;Min_cycle;Max_cycle;Signal;HPM_P1;HPM_P2
2023/03/18 00:01:08;;;;;;;16.42;9.65;;;;;;;;;;4945022;28;25059;-75
2023/03/18 00:03:36;;;;;;;22.80;10.20;;;;;;;;;;4956969;28;25094;-77
2023/03/18 00:06:03;;;;;;;19.00;10.73;;;;;;;;;;4957104;28;25048;-78
2023/03/18 00:08:29;;;;;;;24.95;9.73;;;;;;;;;;4953337;28;25102;-77
2023/03/18 00:10:56;;;;;;;21.25;9.45;;;;;;;;;;4946902;28;25118;-77
2023/03/18 00:13:22;;;;;;;18.92;9.23;;;;;;;;;;4952219;28;25143;-77
2023/03/18 00:15:50;;;;;;;20.40;9.50;;;;;;;;;;4949704;28;25055;-75
2023/03/18 00:18:16;;;;;;;15.32;9.25;;;;;;;;;;4944733;28;25066;-78
2023/03/18 00:20:44;;;;;;;18.90;9.57;;;;;;;;;;4955856;28;25078;-78
2023/03/18 00:23:10;;;;;;;18.05;9.85;;;;;;;;;;4947389;28;25168;-75
2023/03/18 00:25:37;;;;;;;20.35;10.35;;;;;;;;;;4948342;28;25063;-76
2023/03/18 00:28:05;;;;;;;19.65;9.90;;;;;;;;;;4965799;28;25062;-77
2023/03/18 00:30:31;;;;;;;22.73;10.77;;;;;;;;;;4981569;28;25067;-76
2023/03/18 00:32:57;;;;;;;17.33;9.75;;;;;;;;;;4953547;28;25070;-78
2023/03/18 00:35:26;;;;;;;23.98;10.95;;;;;;;;;;4958172;28;25069;-78
2023/03/18 00:37:54;;;;;;;20.35;9.18;;;;;;;;;;4957846;28;25065;-76
2023/03/18 00:40:26;;;;;;;20.00;9.93;;;;;;;;;;4955826;28;25054;-74
2023/03/18 00:42:56;;;;;;;20.85;11.02;;;;;;;;;;4959449;28;25063;-77
2023/03/18 00:45:23;;;;;;;21.15;10.98;;;;;;;;;;4960759;28;25058;-78
2023/03/18 00:47:49;;;;;;;16.42;10.30;;;;;;;;;;4971890;28;25076;-78
2023/03/18 00:50:15;;;;;;;25.75;11.48;;;;;;;;;;4963984;28;25102;-77
2023/03/18 00:52:42;;;;;;;19.40;10.90;;;;;;;;;;4960676;28;25084;-76
2023/03/18 00:55:09;;;;;;;20.50;10.88;;;;;;;;;;4959430;28;25062;-81
2023/03/18 00:57:35;;;;;;;19.60;11.80;;;;;;;;;;4959651;28;25068;-75
2023/03/18 01:00:03;;;;;;;22.48;11.65;;;;;;;;;;4953327;28;25112;-77
2023/03/18 01:02:29;;;;;;;23.90;12.30;;;;;;;;;;4953314;28;25060;-79
2023/03/18 01:04:55;;;;;;;21.50;11.27;;;;;;;;;;4948933;28;25133;-76
2023/03/18 01:07:22;;;;;;;25.65;13.07;;;;;;;;;;4948956;28;25086;-76
2023/03/18 01:09:48;;;;;;;23.88;12.88;;;;;;;;;;4954030;28;25112;-77
2023/03/18 01:12:14;;;;;;;23.05;12.15;;;;;;;;;;4948208;28;25083;-76
2023/03/18 01:14:41;;;;;;;22.58;12.15;;;;;;;;;;4951884;28;25070;-76
2023/03/18 01:17:08;;;;;;;21.10;13.00;;;;;;;;;;4949654;28;25073;-77
2023/03/18 01:19:34;;;;;;;22.55;13.02;;;;;;;;;;4962016;28;25108;-78
2023/03/18 01:22:01;;;;;;;22.95;12.15;;;;;;;;;;4956340;28;25078;-75
2023/03/18 01:24:27;;;;;;;21.92;12.73;;;;;;;;;;4951871;28;25073;-76
2023/03/18 01:26:53;;;;;;;22.55;12.75;;;;;;;;;;4955577;28;25099;-76
2023/03/18 01:29:21;;;;;;;25.17;12.18;;;;;;;;;;4956701;28;25094;-76
2023/03/18 01:31:47;;;;;;;22.40;13.43;;;;;;;;;;4956683;28;25054;-76
2023/03/18 01:34:15;;;;;;;25.85;11.73;;;;;;;;;;4953053;28;25067;-76
2023/03/18 01:36:41;;;;;;;23.52;13.63;;;;;;;;;;4954661;28;25068;-76
2023/03/18 01:39:07;;;;;;;25.00;12.80;;;;;;;;;;4954530;28;25085;-76
2023/03/18 01:41:35;;;;;;;25.77;13.10;;;;;;;;;;4952353;28;25119;-77
2023/03/18 01:44:03;;;;;;;24.45;12.15;;;;;;;;;;4947916;28;25075;-78
2023/03/18 01:46:35;;;;;;;23.55;13.20;;;;;;;;;;4945933;28;25084;-78
2023/03/18 01:49:22;;;;;;;23.17;13.55;;;;;;;;;;4944888;28;25109;-78
2023/03/18 01:52:18;;;;;;;21.25;12.60;;;;;;;;;;4971849;28;25057;-77
2023/03/18 01:55:00;;;;;;;34.35;14.63;;;;;;;;;;4943049;28;25105;-77
2023/03/18 01:57:27;;;;;;;19.95;12.75;;;;;;;;;;4946542;28;25065;-77
2023/03/18 01:59:54;;;;;;;24.95;13.73;;;;;;;;;;4950121;28;25069;-77
2023/03/18 02:02:20;;;;;;;28.77;13.23;;;;;;;;;;4955888;28;25065;-76
2023/03/18 02:04:49;;;;;;;21.73;12.68;;;;;;;;;;4954232;28;25108;-75
2023/03/18 02:07:20;;;;;;;25.10;12.95;;;;;;;;;;4968973;28;25145;-75
2023/03/18 02:09:47;;;;;;;24.58;14.00;;;;;;;;;;4961977;28;25083;-77
2023/03/18 02:12:14;;;;;;;21.00;12.43;;;;;;;;;;4946344;28;25082;-76
2023/03/18 02:14:41;;;;;;;23.42;12.93;;;;;;;;;;4950870;28;25092;-76
2023/03/18 02:17:14;;;;;;;24.42;13.02;;;;;;;;;;4947247;28;25098;-77
2023/03/18 02:19:53;;;;;;;20.75;11.70;;;;;;;;;;4945177;28;25154;-77
2023/03/18 02:22:25;;;;;;;17.35;11.23;;;;;;;;;;4950961;28;25078;-76
2023/03/18 02:24:51;;;;;;;17.50;11.05;;;;;;;;;;4960448;28;25104;-76
2023/03/18 02:27:19;;;;;;;24.83;11.43;;;;;;;;;;4951256;28;25055;-76
2023/03/18 02:29:46;;;;;;;20.40;11.40;;;;;;;;;;4946986;28;25097;-79
2023/03/18 02:32:12;;;;;;;23.45;10.85;;;;;;;;;;4950887;28;25086;-79
2023/03/18 02:34:40;;;;;;;23.50;11.52;;;;;;;;;;4949870;28;25140;-76
2023/03/18 02:37:06;;;;;;;17.98;10.63;;;;;;;;;;4942693;28;25076;-80
2023/03/18 02:39:32;;;;;;;18.05;10.63;;;;;;;;;;4955128;28;25107;-75
2023/03/18 02:41:59;;;;;;;23.45;11.63;;;;;;;;;;4949200;28;25061;-77
2023/03/18 02:44:26;;;;;;;25.35;10.10;;;;;;;;;;4953095;28;25071;-78
2023/03/18 02:46:57;;;;;;;20.42;10.77;;;;;;;;;;4942650;28;25079;-78
2023/03/18 02:49:25;;;;;;;19.77;9.93;;;;;;;;;;4944093;28;25064;-77
2023/03/18 02:51:51;;;;;;;20.00;10.68;;;;;;;;;;4949416;28;25074;-76
2023/03/18 02:54:28;;;;;;;16.02;10.20;;;;;;;;;;4945692;28;25101;-76
2023/03/18 02:56:54;;;;;;;19.08;9.75;;;;;;;;;;4954656;28;25089;-75
2023/03/18 02:59:21;;;;;;;21.92;10.73;;;;;;;;;;4946430;28;25105;-77
2023/03/18 03:01:49;;;;;;;22.35;9.82;;;;;;;;;;4945490;28;25089;-77
2023/03/18 03:04:16;;;;;;;20.98;9.85;;;;;;;;;;4951726;28;25095;-76
2023/03/18 03:06:42;;;;;;;16.33;9.80;;;;;;;;;;4947187;28;25056;-76
2023/03/18 03:09:09;;;;;;;23.13;10.90;;;;;;;;;;4947445;28;25095;-76
2023/03/18 03:11:36;;;;;;;18.65;9.63;;;;;;;;;;4943336;28;25076;-78
2023/03/18 03:14:02;;;;;;;21.90;9.98;;;;;;;;;;4943703;28;25191;-75
2023/03/18 03:16:28;;;;;;;16.65;9.63;;;;;;;;;;4947930;28;25052;-77
2023/03/18 03:18:54;;;;;;;17.85;10.43;;;;;;;;;;4940657;28;25072;-77
2023/03/18 03:21:21;;;;;;;19.90;10.10;;;;;;;;;;4946305;28;25044;-76
2023/03/18 03:23:47;;;;;;;19.73;10.05;;;;;;;;;;4945233;28;25086;-78
2023/03/18 03:26:14;;;;;;;18.35;9.68;;;;;;;;;;4945793;28;25088;-76
2023/03/18 03:28:40;;;;;;;21.73;10.73;;;;;;;;;;4954265;28;25133;-77
2023/03/18 03:31:06;;;;;;;24.77;11.05;;;;;;;;;;4952497;28;25096;-76
2023/03/18 03:33:32;;;;;;;25.70;11.27;;;;;;;;;;4952233;28;25330;-77
2023/03/18 03:35:58;;;;;;;26.58;11.38;;;;;;;;;;4950863;28;25056;-77
2023/03/18 03:38:24;;;;;;;25.00;11.45;;;;;;;;;;4951518;28;24919;-77
2023/03/18 03:40:52;;;;;;;24.40;11.55;;;;;;;;;;4963284;28;25072;-78
2023/03/18 03:43:18;;;;;;;25.40;11.18;;;;;;;;;;4951578;28;25083;-76
2023/03/18 03:45:44;;;;;;;20.02;9.32;;;;;;;;;;4951715;28;25069;-77
2023/03/18 03:48:11;;;;;;;18.90;9.68;;;;;;;;;;4951646;28;25060;-81
2023/03/18 03:50:38;;;;;;;21.83;9.88;;;;;;;;;;4955803;28;25053;-76
2023/03/18 03:53:05;;;;;;;18.15;9.18;;;;;;;;;;4949124;28;25059;-77
2023/03/18 03:55:32;;;;;;;20.35;9.18;;;;;;;;;;4948624;28;25103;-77
2023/03/18 03:57:58;;;;;;;22.27;10.10;;;;;;;;;;4957821;28;25095;-78
2023/03/18 04:00:24;;;;;;;19.90;9.48;;;;;;;;;;4964398;28;25077;-80
2023/03/18 04:02:51;;;;;;;24.48;11.35;;;;;;;;;;4955751;28;25068;-75
2023/03/18 04:05:18;;;;;;;15.90;9.57;;;;;;;;;;4942189;28;25063;-77
2023/03/18 04:07:45;;;;;;;20.58;10.75;;;;;;;;;;4934599;28;25118;-75
2023/03/18 04:10:13;;;;;;;19.63;10.98;;;;;;;;;;4938626;28;25084;-75
2023/03/18 04:12:39;;;;;;;18.70;10.65;;;;;;;;;;4944956;28;25054;-77
2023/03/18 04:15:06;;;;;;;19.52;10.20;;;;;;;;;;4940967;28;25159;-77
2023/03/18 04:17:33;;;;;;;20.20;10.25;;;;;;;;;;4939754;28;25141;-78
2023/03/18 04:19:59;;;;;;;17.20;10.15;;;;;;;;;;4942028;28;25068;-78
2023/03/18 04:22:25;;;;;;;21.13;10.65;;;;;;;;;;4941380;28;25087;-76
2023/03/18 04:24:51;;;;;;;18.20;9.93;;;;;;;;;;4944683;28;25082;-78
2023/03/18 04:27:17;;;;;;;18.65;10.43;;;;;;;;;;4946783;28;25081;-77
2023/03/18 04:29:43;;;;;;;22.27;11.93;;;;;;;;;;4943650;28;25065;-78
2023/03/18 04:32:09;;;;;;;24.63;10.52;;;;;;;;;;4948905;28;25102;-78
2023/03/18 04:34:35;;;;;;;18.95;10.30;;;;;;;;;;4950364;28;25062;-75
2023/03/18 04:37:02;;;;;;;18.65;10.32;;;;;;;;;;4957341;28;25101;-76
2023/03/18 04:39:28;;;;;;;27.58;10.77;;;;;;;;;;4948613;28;25072;-76
2023/03/18 04:41:55;;;;;;;18.33;9.52;;;;;;;;;;4956451;28;25097;-78
2023/03/18 04:44:22;;;;;;;17.45;10.30;;;;;;;;;;4954512;28;25058;-78
2023/03/18 04:46:48;;;;;;;17.70;10.13;;;;;;;;;;4955844;28;25082;-77
2023/03/18 04:49:14;;;;;;;21.40;11.82;;;;;;;;;;4951004;28;25170;-78
2023/03/18 04:51:41;;;;;;;17.92;10.27;;;;;;;;;;4948848;28;25092;-78
2023/03/18 04:54:07;;;;;;;20.42;10.00;;;;;;;;;;4954286;28;25073;-74
2023/03/18 04:56:33;;;;;;;18.45;10.93;;;;;;;;;;4960364;28;25077;-77
2023/03/18 04:58:59;;;;;;;23.45;10.85;;;;;;;;;;4949696;28;25055;-77
2023/03/18 05:01:25;;;;;;;23.92;11.85;;;;;;;;;;4947823;28;25081;-77
2023/03/18 05:03:51;;;;;;;26.42;11.15;;;;;;;;;;4957968;28;25084;-77
2023/03/18 05:06:25;;;;;;;19.58;10.35;;;;;;;;;;4949082;28;25079;-77
2023/03/18 05:08:52;;;;;;;18.65;10.55;;;;;;;;;;4954827;28;25066;-78
2023/03/18 05:11:18;;;;;;;26.08;11.55;;;;;;;;;;4952053;28;25081;-76
2023/03/18 05:13:44;;;;;;;19.75;10.70;;;;;;;;;;4948589;28;25077;-78
2023/03/18 05:16:10;;;;;;;25.13;11.02;;;;;;;;;;4949343;28;25078;-77
2023/03/18 05:18:37;;;;;;;19.58;11.18;;;;;;;;;;4954077;28;25068;-78
2023/03/18 05:21:06;;;;;;;25.38;10.60;;;;;;;;;;4944653;28;25067;-77
2023/03/18 05:23:32;;;;;;;22.65;11.88;;;;;;;;;;4946899;28;25085;-77
2023/03/18 05:25:58;;;;;;;21.15;11.07;;;;;;;;;;4951870;28;25106;-78
2023/03/18 05:28:24;;;;;;;18.95;11.35;;;;;;;;;;4937442;28;25088;-77
2023/03/18 05:30:51;;;;;;;15.80;9.73;;;;;;;;;;4947152;28;25055;-77
2023/03/18 05:33:17;;;;;;;20.10;10.25;;;;;;;;;;4954904;28;25062;-77
2023/03/18 05:35:43;;;;;;;20.38;11.63;;;;;;;;;;4941728;28;25137;-77
2023/03/18 05:38:09;;;;;;;18.05;9.50;;;;;;;;;;4943669;28;25065;-77
2023/03/18 05:40:35;;;;;;;19.25;10.75;;;;;;;;;;4945847;28;25095;-78
2023/03/18 05:43:01;;;;;;;25.35;11.38;;;;;;;;;;4949717;28;25107;-77
2023/03/18 05:45:27;;;;;;;24.85;11.63;;;;;;;;;;4952590;28;25059;-76
2023/03/18 05:47:53;;;;;;;20.48;12.27;;;;;;;;;;4945166;28;25108;-78
2023/03/18 05:50:29;;;;;;;20.35;12.48;;;;;;;;;;4950479;28;25064;-78
2023/03/18 05:52:55;;;;;;;20.20;10.88;;;;;;;;;;4955206;28;25075;-78
2023/03/18 05:55:22;;;;;;;19.90;9.90;;;;;;;;;;4941002;28;25167;-77
2023/03/18 05:57:48;;;;;;;25.83;11.93;;;;;;;;;;4941303;28;25065;-77
2023/03/18 06:00:14;;;;;;;20.00;11.73;;;;;;;;;;4944054;28;25074;-77
2023/03/18 06:02:41;;;;;;;18.58;10.30;;;;;;;;;;4940359;28;25378;-79
2023/03/18 06:05:07;;;;;;;18.08;10.40;;;;;;;;;;4951288;28;25079;-78
2023/03/18 06:07:33;;;;;;;24.38;12.95;;;;;;;;;;4946020;28;25074;-78
2023/03/18 06:09:59;;;;;;;27.15;12.38;;;;;;;;;;4943605;28;25053;-77
2023/03/18 06:12:26;;;;;;;21.35;11.10;;;;;;;;;;4942304;28;25135;-77
2023/03/18 06:14:53;;;;;;;20.02;11.25;;;;;;;;;;4932345;28;25126;-77
2023/03/18 06:17:19;;;;;;;19.95;11.02;;;;;;;;;;4947022;28;25073;-78
2023/03/18 06:19:45;;;;;;;21.55;11.27;;;;;;;;;;4936534;28;25078;-77
2023/03/18 06:22:11;;;;;;;19.85;10.50;;;;;;;;;;4941851;28;25158;-78
2023/03/18 06:24:37;;;;;;;22.33;12.05;;;;;;;;;;4937983;28;25075;-79
2023/03/18 06:27:03;;;;;;;22.67;10.73;;;;;;;;;;4941223;28;25073;-79
2023/03/18 06:29:30;;;;;;;28.35;12.93;;;;;;;;;;4937636;28;25145;-79
2023/03/18 06:31:56;;;;;;;21.65;11.90;;;;;;;;;;4939366;28;25110;-79
2023/03/18 06:34:22;;;;;;;20.88;12.13;;;;;;;;;;4943780;28;25167;-79
2023/03/18 06:36:48;;;;;;;26.58;12.32;;;;;;;;;;4940581;28;25075;-79
2023/03/18 06:39:14;;;;;;;21.27;12.65;;;;;;;;;;4945321;28;25146;-79
2023/03/18 06:41:40;;;;;;;20.83;12.45;;;;;;;;;;4939195;28;25115;-80
2023/03/18 06:44:06;;;;;;;26.80;13.15;;;;;;;;;;4946019;28;25102;-78
2023/03/18 06:46:32;;;;;;;20.88;12.43;;;;;;;;;;4935830;28;25118;-79
2023/03/18 06:48:58;;;;;;;24.65;13.77;;;;;;;;;;4940388;28;25096;-79
2023/03/18 06:51:25;;;;;;;29.05;15.25;;;;;;;;;;4934252;28;25119;-78
2023/03/18 06:53:51;;;;;;;27.15;13.02;;;;;;;;;;4935722;28;25076;-79
2023/03/18 06:56:17;;;;;;;23.85;12.57;;;;;;;;;;4939482;28;24898;-78
2023/03/18 06:58:44;;;;;;;23.58;13.82;;;;;;;;;;4944856;28;25099;-77
2023/03/18 07:01:11;;;;;;;27.17;13.15;;;;;;;;;;4939662;28;25155;-78
2023/03/18 07:03:37;;;;;;;24.55;12.73;;;;;;;;;;4949444;28;25094;-78
2023/03/18 07:06:04;;;;;;;30.50;13.18;;;;;;;;;;4941827;28;25135;-80
2023/03/18 07:08:30;;;;;;;25.60;13.70;;;;;;;;;;4955767;28;25124;-81
2023/03/18 07:10:56;;;;;;;25.25;13.10;;;;;;;;;;4966623;28;25082;-80
2023/03/18 07:13:22;;;;;;;27.38;13.35;;;;;;;;;;4949234;28;25044;-80
2023/03/18 07:15:48;;;;;;;26.13;12.57;;;;;;;;;;4945146;28;25100;-77
2023/03/18 07:18:14;;;;;;;25.65;12.57;;;;;;;;;;4946487;28;25064;-78
2023/03/18 07:20:40;;;;;;;25.27;13.70;;;;;;;;;;4939461;28;25065;-79
2023/03/18 07:23:06;;;;;;;24.60;11.98;;;;;;;;;;4944723;28;25059;-79
2023/03/18 07:25:32;;;;;;;25.85;13.30;;;;;;;;;;4948869;28;25082;-79
2023/03/18 07:28:02;;;;;;;20.20;12.13;;;;;;;;;;4940584;28;25075;-79
2023/03/18 07:30:28;;;;;;;21.23;12.23;;;;;;;;;;4945563;28;25076;-80
2023/03/18 07:32:54;;;;;;;22.88;11.77;;;;;;;;;;4943201;28;25077;-78
2023/03/18 07:35:20;;;;;;;21.55;12.52;;;;;;;;;;4944331;28;25050;-79
2023/03/18 07:37:47;;;;;;;23.80;11.85;;;;;;;;;;4964786;28;25069;-77
2023/03/18 07:40:13;;;;;;;23.90;12.90;;;;;;;;;;4956593;28;25066;-78
2023/03/18 07:42:39;;;;;;;26.17;13.00;;;;;;;;;;4944008;28;25050;-76
2023/03/18 07:45:09;;;;;;;23.58;13.60;;;;;;;;;;4941781;28;25085;-79
2023/03/18 07:47:35;;;;;;;25.00;14.13;;;;;;;;;;4945767;28;25059;-79
2023/03/18 07:50:01;;;;;;;20.15;12.70;;;;;;;;;;4946783;28;25090;-79
2023/03/18 07:52:28;;;;;;;21.73;12.20;;;;;;;;;;4961615;28;25147;-77
2023/03/18 07:54:54;;;;;;;25.25;13.75;;;;;;;;;;4954563;28;25161;-78
2023/03/18 07:57:20;;;;;;;30.88;14.18;;;;;;;;;;4945522;28;25070;-80
2023/03/18 07:59:46;;;;;;;25.35;13.52;;;;;;;;;;4944904;28;25060;-78
2023/03/18 08:02:13;;;;;;;25.13;13.38;;;;;;;;;;4937286;28;25081;-78
2023/03/18 08:04:39;;;;;;;26.25;15.43;;;;;;;;;;4934800;28;25086;-80
2023/03/18 08:07:05;;;;;;;28.75;13.68;;;;;;;;;;4937099;28;25080;-79
2023/03/18 08:09:31;;;;;;;30.77;14.88;;;;;;;;;;4949390;28;25084;-80
2023/03/18 08:11:57;;;;;;;27.38;14.52;;;;;;;;;;4947253;28;25060;-80
2023/03/18 08:14:24;;;;;;;26.88;14.20;;;;;;;;;;4942006;28;25063;-77
2023/03/18 08:16:49;;;;;;;30.83;15.48;;;;;;;;;;4942608;28;25059;-79
2023/03/18 08:19:16;;;;;;;28.17;14.07;;;;;;;;;;4946609;28;25075;-80
2023/03/18 08:21:42;;;;;;;25.98;14.02;;;;;;;;;;4951331;28;25174;-78
2023/03/18 08:24:08;;;;;;;26.17;14.18;;;;;;;;;;4941530;28;25081;-78
2023/03/18 08:26:34;;;;;;;26.88;14.32;;;;;;;;;;4942783;28;25078;-76
2023/03/18 08:29:00;;;;;;;22.10;12.68;;;;;;;;;;4944825;28;25046;-78
2023/03/18 08:31:26;;;;;;;29.73;14.27;;;;;;;;;;4942486;28;25108;-80
2023/03/18 08:33:54;;;;;;;24.13;13.93;;;;;;;;;;4941019;28;25098;-79
2023/03/18 08:36:20;;;;;;;24.40;13.02;;;;;;;;;;4939871;28;25054;-79
2023/03/18 08:38:46;;;;;;;25.98;13.55;;;;;;;;;;4941840;28;25073;-75
2023/03/18 08:41:13;;;;;;;20.55;11.68;;;;;;;;;;4939568;28;25056;-78
2023/03/18 08:43:39;;;;;;;23.90;12.18;;;;;;;;;;4941163;28;25073;-77
2023/03/18 08:46:05;;;;;;;22.80;11.65;;;;;;;;;;4941137;28;25060;-80
2023/03/18 08:48:31;;;;;;;25.10;13.38;;;;;;;;;;4936109;28;25071;-78
2023/03/18 08:50:58;;;;;;;23.38;11.50;;;;;;;;;;4941035;28;25049;-75
2023/03/18 08:53:24;;;;;;;19.80;11.80;;;;;;;;;;4941313;28;25066;-77
2023/03/18 08:55:51;;;;;;;22.67;11.35;;;;;;;;;;4942293;28;25051;-83
2023/03/18 08:58:17;;;;;;;23.27;11.77;;;;;;;;;;4950413;28;25060;-81
2023/03/18 09:00:43;;;;;;;18.88;11.40;;;;;;;;;;4942557;28;25166;-76
2023/03/18 09:03:09;;;;;;;20.70;11.73;;;;;;;;;;4930162;28;25056;-79
2023/03/18 09:05:36;;;;;;;16.90;10.60;;;;;;;;;;4939983;28;25091;-78
2023/03/18 09:08:02;;;;;;;20.88;11.20;;;;;;;;;;4944161;28;25150;-80
2023/03/18 09:10:29;;;;;;;21.50;12.82;;;;;;;;;;4936955;28;25100;-71
2023/03/18 09:12:55;;;;;;;21.55;12.15;;;;;;;;;;4935765;28;25053;-69
2023/03/18 09:15:21;;;;;;;20.83;12.55;;;;;;;;;;4940742;28;25075;-68
2023/03/18 09:17:47;;;;;;;23.45;12.63;;;;;;;;;;4945423;28;25078;-69
2023/03/18 09:20:15;;;;;;;23.35;12.95;;;;;;;;;;4938592;28;25071;-69
2023/03/18 09:22:41;;;;;;;20.13;11.30;;;;;;;;;;4940210;28;25077;-69
2023/03/18 09:25:08;;;;;;;22.25;12.18;;;;;;;;;;4943352;28;25098;-70
2023/03/18 09:27:34;;;;;;;17.50;11.48;;;;;;;;;;4933225;28;25058;-69
2023/03/18 09:30:00;;;;;;;19.40;11.85;;;;;;;;;;4936212;28;25129;-69
2023/03/18 09:32:26;;;;;;;18.95;11.00;;;;;;;;;;4941759;28;25142;-69
2023/03/18 09:34:53;;;;;;;21.80;11.18;;;;;;;;;;4941845;28;25155;-69
2023/03/18 09:37:20;;;;;;;17.60;11.10;;;;;;;;;;4935938;28;25085;-73
2023/03/18 09:39:46;;;;;;;25.77;12.38;;;;;;;;;;4938079;28;25126;-74
2023/03/18 09:42:15;;;;;;;21.42;11.30;;;;;;;;;;4941380;28;25084;-73
2023/03/18 09:44:42;;;;;;;19.73;10.88;;;;;;;;;;4933152;28;25101;-73
2023/03/18 09:47:17;;;;;;;23.63;12.07;;;;;;;;;;4939962;28;25175;-72
2023/03/18 09:49:43;;;;;;;20.48;10.45;;;;;;;;;;4938556;28;25074;-72
2023/03/18 09:52:09;;;;;;;20.00;10.23;;;;;;;;;;4936368;28;25069;-73
2023/03/18 09:54:46;;;;;;;20.63;11.45;;;;;;;;;;4936690;28;25158;-73
2023/03/18 09:57:19;;;;;;;18.60;11.30;;;;;;;;;;4942570;28;25071;-74
2023/03/18 09:59:53;;;;;;;22.45;10.38;;;;;;;;;;4938182;28;25068;-72
2023/03/18 10:02:38;;;;;;;19.05;9.90;;;;;;;;;;4939089;28;25070;-72
2023/03/18 10:05:06;;;;;;;18.88;10.38;;;;;;;;;;4935033;28;25061;-74
2023/03/18 10:07:36;;;;;;;17.05;10.07;;;;;;;;;;4938212;28;25085;-73
2023/03/18 10:10:06;;;;;;;19.77;10.20;;;;;;;;;;4935868;28;25081;-73
2023/03/18 10:12:34;;;;;;;15.88;9.55;;;;;;;;;;4941084;28;25069;-72
2023/03/18 10:15:09;;;;;;;17.90;10.55;;;;;;;;;;4936432;28;25073;-73
2023/03/18 10:17:40;;;;;;;17.80;10.10;;;;;;;;;;4943562;28;25175;-72
2023/03/18 10:20:14;;;;;;;16.00;9.70;;;;;;;;;;4929857;28;25086;-69
2023/03/18 10:22:53;;;;;;;17.95;10.35;;;;;;;;;;4937770;28;25113;-73
2023/03/18 10:25:27;;;;;;;17.08;9.95;;;;;;;;;;4938639;28;25108;-73
2023/03/18 10:28:05;;;;;;;21.17;10.52;;;;;;;;;;4930739;28;25085;-72
2023/03/18 10:30:57;;;;;;;15.60;9.38;;;;;;;;;;4941956;28;25122;-71
2023/03/18 10:33:40;;;;;;;18.15;9.55;;;;;;;;;;4930966;28;25090;-73
2023/03/18 10:36:19;;;;;;;16.42;9.30;;;;;;;;;;4938508;28;25064;-73
2023/03/18 10:38:49;;;;;;;17.58;9.80;;;;;;;;;;4937637;28;25170;-70
2023/03/18 10:41:18;;;;;;;15.20;8.40;;;;;;;;;;4944155;28;25147;-73
2023/03/18 10:43:45;;;;;;;16.02;8.50;;;;;;;;;;4940641;28;25052;-74
2023/03/18 10:46:14;;;;;;;15.98;9.38;;;;;;;;;;4946414;28;25150;-76
2023/03/18 10:48:59;;;;;;;14.90;9.00;;;;;;;;;;4946598;28;25121;-75
2023/03/18 10:51:34;;;;;;;15.77;8.15;;;;;;;;;;4948595;28;25170;-74
2023/03/18 10:54:19;;;;;;;15.13;8.20;;;;;;;;;;4939762;28;25083;-74
2023/03/18 10:56:45;;;;;;;17.27;8.35;;;;;;;;;;4938371;28;25104;-73
2023/03/18 10:59:14;;;;;;;14.45;8.35;;;;;;;;;;4945127;28;25069;-73
2023/03/18 11:01:41;;;;;;;14.77;7.85;;;;;;;;;;4942829;28;25097;-73
2023/03/18 11:04:11;;;;;;;15.85;8.35;;;;;;;;;;4936975;28;25054;-74
2023/03/18 11:06:40;;;;;;;14.75;7.18;;;;;;;;;;4938812;28;25088;-74
2023/03/18 11:09:11;;;;;;;12.93;7.78;;;;;;;;;;4938217;28;25047;-74
2023/03/18 11:11:40;;;;;;;15.73;7.90;;;;;;;;;;4945915;28;25053;-73
2023/03/18 11:14:07;;;;;;;14.75;7.72;;;;;;;;;;4947192;28;25177;-72
2023/03/18 11:16:39;;;;;;;10.60;6.40;;;;;;;;;;4945044;28;25092;-71
2023/03/18 11:19:24;;;;;;;19.05;8.73;;;;;;;;;;4951093;28;25063;-71
2023/03/18 11:22:00;;;;;;;16.88;7.93;;;;;;;;;;4950962;28;25106;-70
2023/03/18 11:24:37;;;;;;;12.85;7.53;;;;;;;;;;4948084;28;25072;-75
2023/03/18 11:27:05;;;;;;;18.30;8.43;;;;;;;;;;4946377;28;25065;-70
2023/03/18 11:29:33;;;;;;;14.75;7.60;;;;;;;;;;4948153;28;25056;-73
2023/03/18 11:32:00;;;;;;;14.98;7.15;;;;;;;;;;4944417;28;25142;-71
2023/03/18 11:34:27;;;;;;;14.20;7.32;;;;;;;;;;4933796;28;25050;-71
2023/03/18 11:36:59;;;;;;;13.55;7.55;;;;;;;;;;4943996;28;25101;-71
2023/03/18 11:39:27;;;;;;;19.65;7.28;;;;;;;;;;4947399;28;25148;-74
2023/03/18 11:41:53;;;;;;;15.75;7.28;;;;;;;;;;4950140;28;25070;-72
2023/03/18 11:44:25;;;;;;;14.43;7.45;;;;;;;;;;4943826;28;25110;-73
2023/03/18 11:47:06;;;;;;;12.52;6.80;;;;;;;;;;4951868;28;25067;-73
2023/03/18 11:49:33;;;;;;;12.23;6.05;;;;;;;;;;4946787;28;25069;-74
2023/03/18 11:52:08;;;;;;;9.63;5.80;;;;;;;;;;4942189;28;25076;-71
2023/03/18 11:54:53;;;;;;;8.73;5.50;;;;;;;;;;4953273;28;25063;-72
2023/03/18 11:57:39;;;;;;;17.02;6.50;;;;;;;;;;4944131;28;25098;-73
2023/03/18 12:00:17;;;;;;;14.25;6.32;;;;;;;;;;4953369;28;25080;-71
2023/03/18 12:02:46;;;;;;;10.05;5.85;;;;;;;;;;4945046;28;25145;-72
2023/03/18 12:05:31;;;;;;;8.55;5.40;;;;;;;;;;4953683;28;25064;-72
2023/03/18 12:08:02;;;;;;;11.38;6.00;;;;;;;;;;4948856;28;25088;-70
2023/03/18 12:10:37;;;;;;;10.98;5.70;;;;;;;;;;4953902;28;25061;-71
2023/03/18 12:13:21;;;;;;;11.43;5.45;;;;;;;;;;4950253;28;25083;-73
2023/03/18 12:15:51;;;;;;;17.45;6.95;;;;;;;;;;4944083;28;25067;-72
2023/03/18 12:18:38;;;;;;;13.27;6.80;;;;;;;;;;4944284;28;25142;-70
2023/03/18 12:21:23;;;;;;;15.13;6.85;;;;;;;;;;4947802;28;25079;-71
2023/03/18 12:23:52;;;;;;;14.32;7.07;;;;;;;;;;4941851;28;25112;-71
2023/03/18 12:26:25;;;;;;;20.83;7.75;;;;;;;;;;4950495;28;25136;-70
2023/03/18 12:29:03;;;;;;;13.20;5.97;;;;;;;;;;4954293;28;25052;-71
2023/03/18 12:31:49;;;;;;;11.98;6.20;;;;;;;;;;4943686;28;25114;-72
2023/03/18 12:34:30;;;;;;;12.57;5.93;;;;;;;;;;4949666;28;25089;-71
2023/03/18 12:37:14;;;;;;;8.73;5.60;;;;;;;;;;4961805;28;25078;-71
2023/03/18 12:39:52;;;;;;;9.77;5.75;;;;;;;;;;4951685;28;25140;-71
2023/03/18 12:42:28;;;;;;;12.75;7.35;;;;;;;;;;4955507;28;25070;-72
2023/03/18 12:44:59;;;;;;;8.68;5.03;;;;;;;;;;4957655;28;25085;-71
2023/03/18 12:47:34;;;;;;;9.85;5.38;;;;;;;;;;4959227;28;25087;-71
2023/03/18 12:50:02;;;;;;;10.90;4.93;;;;;;;;;;4955286;28;25102;-73
2023/03/18 12:52:29;;;;;;;11.63;5.60;;;;;;;;;;4959549;28;25068;-74
2023/03/18 12:54:58;;;;;;;10.38;4.80;;;;;;;;;;4958947;28;25074;-74
2023/03/18 12:57:30;;;;;;;10.15;4.07;;;;;;;;;;4959921;28;25079;-72
2023/03/18 13:00:01;;;;;;;8.27;4.20;;;;;;;;;;4952733;28;25076;-72
2023/03/18 13:02:48;;;;;;;8.32;3.22;;;;;;;;;;4957643;28;25127;-73
2023/03/18 13:05:35;;;;;;;7.93;3.30;;;;;;;;;;4949440;28;25063;-72
2023/03/18 13:08:13;;;;;;;3.75;2.80;;;;;;;;;;5006711;28;25131;-71
2023/03/18 13:10:41;;;;;;;5.05;2.28;;;;;;;;;;4945307;28;25130;-69
2023/03/18 13:13:08;;;;;;;8.32;2.83;;;;;;;;;;4942953;28;25049;-71
2023/03/18 13:15:41;;;;;;;6.43;2.53;;;;;;;;;;4947473;28;25108;-70
2023/03/18 13:18:22;;;;;;;8.63;2.53;;;;;;;;;;4946542;28;25186;-72
2023/03/18 13:20:48;;;;;;;9.50;2.78;;;;;;;;;;4935155;28;25066;-70
2023/03/18 13:23:20;;;;;;;7.10;2.50;;;;;;;;;;4940209;28;25158;-71
2023/03/18 13:25:50;;;;;;;3.03;2.25;;;;;;;;;;4946368;28;25066;-69
2023/03/18 13:28:35;;;;;;;4.68;2.22;;;;;;;;;;4943178;28;25079;-71
2023/03/18 13:31:20;;;;;;;6.75;2.53;;;;;;;;;;4943058;28;25041;-70
2023/03/18 13:33:49;;;;;;;4.55;2.72;;;;;;;;;;4942937;28;25149;-73
2023/03/18 13:36:33;;;;;;;5.53;3.17;;;;;;;;;;4934331;28;25083;-72
2023/03/18 13:39:07;;;;;;;2.70;2.22;;;;;;;;;;4952716;28;25072;-70
2023/03/18 13:41:36;;;;;;;6.00;2.17;;;;;;;;;;4940771;28;25086;-71
2023/03/18 13:44:09;;;;;;;6.30;2.20;;;;;;;;;;4948590;28;25058;-73
2023/03/18 13:46:35;;;;;;;1.80;1.50;;;;;;;;;;4939883;28;25104;-70
2023/03/18 13:49:02;;;;;;;2.22;1.77;;;;;;;;;;4936229;28;25166;-69
2023/03/18 13:51:28;;;;;;;5.55;1.90;;;;;;;;;;4936132;28;25069;-69
2023/03/18 13:53:59;;;;;;;3.00;1.95;;;;;;;;;;4932162;28;25133;-70
2023/03/18 13:56:27;;;;;;;6.33;1.97;;;;;;;;;;4941965;28;25072;-70
2023/03/18 13:58:54;;;;;;;4.15;2.00;;;;;;;;;;4935452;28;25103;-70
2023/03/18 14:01:35;;;;;;;2.78;1.73;;;;;;;;;;4944057;28;25071;-73
2023/03/18 14:04:01;;;;;;;4.18;1.67;;;;;;;;;;4941801;28;25160;-70
2023/03/18 14:06:36;;;;;;;2.55;1.60;;;;;;;;;;4934569;28;25063;-70
2023/03/18 14:09:20;;;;;;;2.70;2.00;;;;;;;;;;4937676;28;25119;-69
2023/03/18 14:11:48;;;;;;;6.07;1.77;;;;;;;;;;4937148;28;25096;-72
2023/03/18 14:14:53;;;;;;;3.35;1.60;;;;;;;;;;4935189;28;25046;-70
2023/03/18 14:17:34;;;;;;;2.45;1.27;;;;;;;;;;4880781;28;25056;-70
2023/03/18 14:20:16;;;;;;;2.13;1.40;;;;;;;;;;4884700;28;25063;-72
2023/03/18 14:22:42;;;;;;;6.40;1.45;;;;;;;;;;4920550;28;25063;-71
2023/03/18 14:25:09;;;;;;;2.15;1.60;;;;;;;;;;4942745;28;25067;-71
2023/03/18 14:27:44;;;;;;;1.73;1.30;;;;;;;;;;4934123;28;25094;-70
2023/03/18 14:30:27;;;;;;;4.35;2.00;;;;;;;;;;4940074;28;25073;-71
2023/03/18 14:32:57;;;;;;;3.13;1.55;;;;;;;;;;4935309;28;25132;-69
2023/03/18 14:35:28;;;;;;;2.45;1.33;;;;;;;;;;4931880;28;25138;-70